createdAt,value
2022-11-21T11:13:44.436Z,97819.94
2022-11-21T11:16:17.321Z,97822.41
2022-11-21T11:18:54.373Z,97818.44
2022-11-21T11:21:23.597Z,97807.97
2022-11-21T11:23:52.097Z,97805.63
2022-11-21T11:26:27.750Z,97811.44
2022-11-21T11:29:07.821Z,97795.09
2022-11-21T11:32:04.466Z,97789.59
2022-11-21T11:34:54.299Z,97787.50
2022-11-21T11:37:29.823Z,97787.50
2022-11-21T11:40:23.769Z,97794.41
2022-11-21T11:43:27.356Z,97800.09
2022-11-21T11:46:50.760Z,97802.34
2022-11-21T11:49:58.741Z,97776.81
2022-11-21T11:52:33.946Z,97766.38
2022-11-21T11:55:06.774Z,97759.47
2022-11-21T11:57:37.429Z,97763.81
2022-11-21T12:00:17.293Z,97755.75
2022-11-21T12:03:11.891Z,97755.28
2022-11-21T12:05:54.880Z,97757.44
2022-11-21T12:08:44.331Z,97753.50
2022-11-21T12:11:53.313Z,97743.13
2022-11-21T12:15:00.097Z,97731.22
2022-11-21T12:17:39.187Z,97732.53
2022-11-21T12:20:15.773Z,97723.59
2022-11-21T12:22:44.003Z,97723.84
2022-11-21T12:25:12.960Z,97719.53
2022-11-21T12:27:41.757Z,97713.34
2022-11-21T12:30:21.610Z,97715.50
2022-11-21T12:33:24.396Z,97711.94
2022-11-21T12:35:53.680Z,97724.34
2022-11-21T12:38:22.886Z,97710.25
2022-11-21T12:41:24.883Z,97712.41
2022-11-21T12:44:30.189Z,97699.06
2022-11-21T12:47:02.950Z,97698.84
2022-11-21T12:50:27.126Z,97695.50
2022-11-21T12:53:45.034Z,97679.84
2022-11-21T12:56:28.651Z,97681.88
2022-11-21T12:58:56.916Z,97672.81
2022-11-21T13:01:38.951Z,97668.75
2022-11-21T13:04:30.558Z,97672.47
2022-11-21T13:06:58.560Z,97666.84
2022-11-21T13:09:28.116Z,97661.81
2022-11-21T13:12:06.327Z,97662.41
2022-11-21T13:15:00.842Z,97650.56
2022-11-21T13:17:56.139Z,97646.50
2022-11-21T13:20:35.449Z,97650.56
2022-11-21T13:23:07.138Z,97654.25
2022-11-21T13:25:40.427Z,97640.59
2022-11-21T13:28:19.179Z,97624.91
2022-11-21T13:30:56.463Z,97627.53
2022-11-21T13:33:35.361Z,97631.75
2022-11-21T13:36:30.299Z,97646.41
2022-11-21T13:38:56.956Z,97630.91
2022-11-21T13:41:54.051Z,97630.28
2022-11-21T13:44:32.569Z,97638.75
2022-11-21T13:47:00.032Z,97643.09
2022-11-21T13:49:31.702Z,97649.50
2022-11-21T13:52:02.100Z,97644.63
2022-11-21T13:54:56.687Z,97641.00
2022-11-21T13:57:38.155Z,97635.88
2022-11-21T14:00:28.724Z,97634.53
2022-11-21T14:03:22.641Z,97637.16
2022-11-21T14:06:16.495Z,97638.66
2022-11-21T14:08:43.996Z,97645.59
2022-11-21T14:11:22.405Z,97645.81
2022-11-21T14:13:50.395Z,97645.09
2022-11-21T14:16:36.828Z,97645.66
2022-11-21T14:19:04.995Z,97646.25
2022-11-21T14:21:34.144Z,97649.72
2022-11-21T14:24:06.560Z,97654.50
2022-11-21T14:26:40.388Z,97656.88
2022-11-21T14:29:22.795Z,97651.91
2022-11-21T14:31:50.689Z,97650.66
2022-11-21T14:34:31.803Z,97645.22
2022-11-21T14:37:05.277Z,97650.66
2022-11-21T14:39:38.701Z,97644.47
2022-11-21T14:42:11.258Z,97644.13
2022-11-21T14:44:38.175Z,97644.47
2022-11-21T14:47:25.196Z,97640.28
2022-11-21T14:49:55.539Z,97634.78
2022-11-21T14:52:29.166Z,97631.09
2022-11-21T14:55:29.719Z,97627.75
2022-11-21T14:57:47.540Z,97634.13
2022-11-21T15:00:58.509Z,97616.25
2022-11-21T15:03:20.372Z,97614.91
2022-11-21T15:06:04.039Z,97612.28
2022-11-21T15:11:23.599Z,97604.09
2022-11-21T15:14:15.903Z,97591.91
2022-11-21T15:16:48.267Z,97587.72
2022-11-21T15:19:26.261Z,97575.59
2022-11-21T15:21:56.546Z,97576.72
2022-11-21T15:24:42.721Z,97572.03
2022-11-21T15:27:28.096Z,97562.66
2022-11-21T15:30:09.840Z,97568.53
2022-11-21T15:33:04.334Z,97578.16
2022-11-21T15:35:51.322Z,97574.38
2022-11-21T15:38:40.515Z,97572.03
2022-11-21T15:41:09.943Z,97565.31
2022-11-21T15:43:38.466Z,97569.81
2022-11-21T15:46:14.452Z,97564.81
2022-11-21T15:48:41.961Z,97553.41
2022-11-21T15:51:12.118Z,97554.47
2022-11-21T15:53:39.582Z,97539.34
2022-11-21T15:56:06.648Z,97553.41
2022-11-21T15:58:33.491Z,97552.41
2022-11-21T16:01:00.486Z,97558.25
2022-11-21T16:03:27.490Z,97551.84
2022-11-21T16:05:54.113Z,97548.25
2022-11-21T16:08:20.688Z,97550.13
2022-11-21T16:10:47.289Z,97552.84
2022-11-21T16:13:14.158Z,97547.97
2022-11-21T16:15:41.134Z,97552.34
2022-11-21T16:18:08.544Z,97553.91
2022-11-21T16:20:35.135Z,97554.69
2022-11-21T16:23:01.749Z,97547.47
2022-11-21T16:25:28.343Z,97542.00
2022-11-21T16:27:56.809Z,97534.88
2022-11-21T16:30:23.442Z,97533.47
2022-11-21T16:32:51.311Z,97532.44
2022-11-21T16:35:17.875Z,97531.22
2022-11-21T16:37:44.516Z,97531.16
2022-11-21T16:40:11.406Z,97523.94
2022-11-21T16:42:38.105Z,97512.66
2022-11-21T16:45:05.451Z,97508.56
2022-11-21T16:47:32.048Z,97501.63
2022-11-21T16:49:58.693Z,97497.66
2022-11-21T16:52:26.343Z,97491.16
2022-11-21T16:54:52.919Z,97480.03
2022-11-21T16:57:19.515Z,97475.16
2022-11-21T16:59:47.147Z,97467.00
2022-11-21T17:02:13.904Z,97467.59
2022-11-21T17:04:40.554Z,97463.81
2022-11-21T17:07:07.164Z,97457.66
